sensor_id;sensor_type;location;lat;lon;timestamp;pressure;altitude;pressure_sealevel;temperature
9119;BMP180;4594;50.994;7.126;2023-04-01T00:01:00;98551.00;;;16.00
9119;BMP180;4594;50.994;7.126;2023-04-01T00:03:27;98546.00;;;16.00
9119;BMP180;4594;50.994;7.126;2023-04-01T00:05:57;98547.00;;;16.00
9119;BMP180;4594;50.994;7.126;2023-04-01T00:08:25;98550.00;;;16.00
9119;BMP180;4594;50.994;7.126;2023-04-01T00:10:52;98549.00;;;16.00
9119;BMP180;4594;50.994;7.126;2023-04-01T00:13:19;98541.00;;;16.00
9119;BMP180;4594;50.994;7.126;2023-04-01T00:15:45;98551.00;;;16.00
9119;BMP180;4594;50.994;7.126;2023-04-01T00:18:11;98530.00;;;16.00
9119;BMP180;4594;50.994;7.126;2023-04-01T00:20:38;98553.00;;;16.00
9119;BMP180;4594;50.994;7.126;2023-04-01T00:23:03;98538.00;;;15.90
9119;BMP180;4594;50.994;7.126;2023-04-01T00:25:30;98545.00;;;16.00
9119;BMP180;4594;50.994;7.126;2023-04-01T00:27:56;98552.00;;;16.00
9119;BMP180;4594;50.994;7.126;2023-04-01T00:30:22;98542.00;;;16.00
9119;BMP180;4594;50.994;7.126;2023-04-01T00:32:52;98520.00;;;16.00
9119;BMP180;4594;50.994;7.126;2023-04-01T00:35:18;98541.00;;;16.00
9119;BMP180;4594;50.994;7.126;2023-04-01T00:37:44;98527.00;;;16.00
9119;BMP180;4594;50.994;7.126;2023-04-01T00:42:50;98524.00;;;16.10
9119;BMP180;4594;50.994;7.126;2023-04-01T00:45:47;98534.00;;;16.10
9119;BMP180;4594;50.994;7.126;2023-04-01T00:48:18;98531.00;;;16.10
9119;BMP180;4594;50.994;7.126;2023-04-01T00:51:39;98529.00;;;16.10
9119;BMP180;4594;50.994;7.126;2023-04-01T00:53:50;98545.00;;;16.10
9119;BMP180;4594;50.994;7.126;2023-04-01T00:56:45;98531.00;;;16.10
9119;BMP180;4594;50.994;7.126;2023-04-01T00:59:32;98529.00;;;16.00
9119;BMP180;4594;50.994;7.126;2023-04-01T01:02:01;98534.00;;;16.00
9119;BMP180;4594;50.994;7.126;2023-04-01T01:04:33;98534.00;;;16.00
9119;BMP180;4594;50.994;7.126;2023-04-01T01:12:45;98519.00;;;16.00
9119;BMP180;4594;50.994;7.126;2023-04-01T01:15:40;98527.00;;;16.00
9119;BMP180;4594;50.994;7.126;2023-04-01T01:18:35;98519.00;;;16.00
9119;BMP180;4594;50.994;7.126;2023-04-01T01:22:00;98524.00;;;16.00
9119;BMP180;4594;50.994;7.126;2023-04-01T01:24:55;98523.00;;;16.00
9119;BMP180;4594;50.994;7.126;2023-04-01T01:27:23;98509.00;;;16.00
9119;BMP180;4594;50.994;7.126;2023-04-01T01:32:58;98512.00;;;15.90
9119;BMP180;4594;50.994;7.126;2023-04-01T01:35:43;98526.00;;;16.00
9119;BMP180;4594;50.994;7.126;2023-04-01T01:38:17;98503.00;;;16.00
9119;BMP180;4594;50.994;7.126;2023-04-01T01:40:49;98512.00;;;16.00
9119;BMP180;4594;50.994;7.126;2023-04-01T01:43:21;98521.00;;;16.00
9119;BMP180;4594;50.994;7.126;2023-04-01T01:45:54;98518.00;;;16.00
9119;BMP180;4594;50.994;7.126;2023-04-01T01:48:23;98520.00;;;16.00
9119;BMP180;4594;50.994;7.126;2023-04-01T01:50:50;98519.00;;;16.00
9119;BMP180;4594;50.994;7.126;2023-04-01T01:53:17;98516.00;;;16.00
9119;BMP180;4594;50.994;7.126;2023-04-01T01:55:47;98514.00;;;16.00
9119;BMP180;4594;50.994;7.126;2023-04-01T01:58:33;98509.00;;;16.00
9119;BMP180;4594;50.994;7.126;2023-04-01T02:01:10;98511.00;;;15.90
9119;BMP180;4594;50.994;7.126;2023-04-01T02:03:40;98504.00;;;15.90
9119;BMP180;4594;50.994;7.126;2023-04-01T02:06:15;98520.00;;;15.90
9119;BMP180;4594;50.994;7.126;2023-04-01T02:08:47;98517.00;;;15.90
9119;BMP180;4594;50.994;7.126;2023-04-01T02:11:17;98514.00;;;15.80
9119;BMP180;4594;50.994;7.126;2023-04-01T02:14:03;98508.00;;;15.80
9119;BMP180;4594;50.994;7.126;2023-04-01T02:20:07;98525.00;;;15.70
9119;BMP180;4594;50.994;7.126;2023-04-01T02:22:40;98527.00;;;15.70
9119;BMP180;4594;50.994;7.126;2023-04-01T02:25:22;98534.00;;;15.60
9119;BMP180;4594;50.994;7.126;2023-04-01T02:27:49;98526.00;;;15.60
9119;BMP180;4594;50.994;7.126;2023-04-01T02:30:17;98520.00;;;15.60
9119;BMP180;4594;50.994;7.126;2023-04-01T02:32:44;98520.00;;;15.50
9119;BMP180;4594;50.994;7.126;2023-04-01T02:35:13;98541.00;;;15.50
9119;BMP180;4594;50.994;7.126;2023-04-01T02:37:40;98529.00;;;15.50
9119;BMP180;4594;50.994;7.126;2023-04-01T02:40:12;98527.00;;;15.50
9119;BMP180;4594;50.994;7.126;2023-04-01T02:42:38;98526.00;;;15.40
9119;BMP180;4594;50.994;7.126;2023-04-01T02:45:05;98525.00;;;15.40
9119;BMP180;4594;50.994;7.126;2023-04-01T02:47:31;98509.00;;;15.40
9119;BMP180;4594;50.994;7.126;2023-04-01T02:49:57;98528.00;;;15.30
9119;BMP180;4594;50.994;7.126;2023-04-01T02:52:26;98520.00;;;15.30
9119;BMP180;4594;50.994;7.126;2023-04-01T02:54:52;98519.00;;;15.30
9119;BMP180;4594;50.994;7.126;2023-04-01T02:57:18;98521.00;;;15.20
9119;BMP180;4594;50.994;7.126;2023-04-01T02:59:44;98506.00;;;15.20
9119;BMP180;4594;50.994;7.126;2023-04-01T03:02:10;98513.00;;;15.10
9119;BMP180;4594;50.994;7.126;2023-04-01T03:04:36;98515.00;;;15.10
9119;BMP180;4594;50.994;7.126;2023-04-01T03:07:01;98518.00;;;15.00
9119;BMP180;4594;50.994;7.126;2023-04-01T03:09:27;98514.00;;;15.00
9119;BMP180;4594;50.994;7.126;2023-04-01T03:11:54;98511.00;;;15.00
9119;BMP180;4594;50.994;7.126;2023-04-01T03:14:20;98502.00;;;14.90
9119;BMP180;4594;50.994;7.126;2023-04-01T03:16:46;98513.00;;;14.90
9119;BMP180;4594;50.994;7.126;2023-04-01T03:19:11;98506.00;;;14.90
9119;BMP180;4594;50.994;7.126;2023-04-01T03:21:37;98512.00;;;14.90
9119;BMP180;4594;50.994;7.126;2023-04-01T03:24:03;98510.00;;;14.90
9119;BMP180;4594;50.994;7.126;2023-04-01T03:26:29;98519.00;;;14.90
9119;BMP180;4594;50.994;7.126;2023-04-01T03:28:55;98514.00;;;14.90
9119;BMP180;4594;50.994;7.126;2023-04-01T03:31:21;98524.00;;;14.80
9119;BMP180;4594;50.994;7.126;2023-04-01T03:33:47;98519.00;;;14.80
9119;BMP180;4594;50.994;7.126;2023-04-01T03:36:13;98526.00;;;14.80
9119;BMP180;4594;50.994;7.126;2023-04-01T03:38:43;98525.00;;;14.80
9119;BMP180;4594;50.994;7.126;2023-04-01T03:41:15;98519.00;;;14.80
9119;BMP180;4594;50.994;7.126;2023-04-01T03:43:41;98528.00;;;14.80
9119;BMP180;4594;50.994;7.126;2023-04-01T03:46:07;98524.00;;;14.80
9119;BMP180;4594;50.994;7.126;2023-04-01T03:48:33;98523.00;;;14.80
9119;BMP180;4594;50.994;7.126;2023-04-01T03:50:58;98528.00;;;14.80
9119;BMP180;4594;50.994;7.126;2023-04-01T03:53:24;98530.00;;;14.80
9119;BMP180;4594;50.994;7.126;2023-04-01T03:55:50;98521.00;;;14.90
9119;BMP180;4594;50.994;7.126;2023-04-01T03:58:17;98539.00;;;14.90
9119;BMP180;4594;50.994;7.126;2023-04-01T04:00:43;98521.00;;;14.90
9119;BMP180;4594;50.994;7.126;2023-04-01T04:03:09;98525.00;;;14.90
9119;BMP180;4594;50.994;7.126;2023-04-01T04:05:35;98536.00;;;14.90
9119;BMP180;4594;50.994;7.126;2023-04-01T04:08:00;98509.00;;;14.90
9119;BMP180;4594;50.994;7.126;2023-04-01T04:10:26;98516.00;;;14.90
9119;BMP180;4594;50.994;7.126;2023-04-01T04:12:52;98526.00;;;14.90
9119;BMP180;4594;50.994;7.126;2023-04-01T04:15:18;98537.00;;;14.90
9119;BMP180;4594;50.994;7.126;2023-04-01T04:17:45;98543.00;;;15.00
9119;BMP180;4594;50.994;7.126;2023-04-01T04:20:11;98546.00;;;15.00
9119;BMP180;4594;50.994;7.126;2023-04-01T04:22:36;98531.00;;;15.00
9119;BMP180;4594;50.994;7.126;2023-04-01T04:25:02;98539.00;;;15.00
9119;BMP180;4594;50.994;7.126;2023-04-01T04:27:28;98537.00;;;15.00
9119;BMP180;4594;50.994;7.126;2023-04-01T04:29:54;98523.00;;;15.00
9119;BMP180;4594;50.994;7.126;2023-04-01T04:32:19;98534.00;;;15.00
9119;BMP180;4594;50.994;7.126;2023-04-01T04:34:45;98518.00;;;15.00
9119;BMP180;4594;50.994;7.126;2023-04-01T04:37:11;98536.00;;;15.00
9119;BMP180;4594;50.994;7.126;2023-04-01T04:39:37;98529.00;;;15.00
9119;BMP180;4594;50.994;7.126;2023-04-01T04:42:03;98537.00;;;15.00
9119;BMP180;4594;50.994;7.126;2023-04-01T04:44:28;98509.00;;;15.00
9119;BMP180;4594;50.994;7.126;2023-04-01T04:46:54;98538.00;;;15.00
9119;BMP180;4594;50.994;7.126;2023-04-01T04:49:20;98541.00;;;15.00
9119;BMP180;4594;50.994;7.126;2023-04-01T04:51:45;98525.00;;;15.00
9119;BMP180;4594;50.994;7.126;2023-04-01T04:54:11;98529.00;;;15.00
9119;BMP180;4594;50.994;7.126;2023-04-01T04:56:37;98518.00;;;15.00
9119;BMP180;4594;50.994;7.126;2023-04-01T04:59:03;98545.00;;;15.00
9119;BMP180;4594;50.994;7.126;2023-04-01T05:01:28;98527.00;;;15.00
9119;BMP180;4594;50.994;7.126;2023-04-01T05:03:54;98545.00;;;15.00
9119;BMP180;4594;50.994;7.126;2023-04-01T05:06:21;98548.00;;;15.00
9119;BMP180;4594;50.994;7.126;2023-04-01T05:08:46;98550.00;;;15.00
9119;BMP180;4594;50.994;7.126;2023-04-01T05:11:18;98564.00;;;15.10
9119;BMP180;4594;50.994;7.126;2023-04-01T05:13:45;98558.00;;;15.10
9119;BMP180;4594;50.994;7.126;2023-04-01T05:16:14;98555.00;;;15.10
9119;BMP180;4594;50.994;7.126;2023-04-01T05:18:40;98561.00;;;15.10
9119;BMP180;4594;50.994;7.126;2023-04-01T05:21:09;98565.00;;;15.10
9119;BMP180;4594;50.994;7.126;2023-04-01T05:23:36;98566.00;;;15.10
9119;BMP180;4594;50.994;7.126;2023-04-01T05:26:08;98565.00;;;15.10
9119;BMP180;4594;50.994;7.126;2023-04-01T05:28:34;98567.00;;;15.20
9119;BMP180;4594;50.994;7.126;2023-04-01T05:31:02;98575.00;;;15.20
9119;BMP180;4594;50.994;7.126;2023-04-01T05:33:29;98575.00;;;15.20
9119;BMP180;4594;50.994;7.126;2023-04-01T05:35:55;98571.00;;;15.20
9119;BMP180;4594;50.994;7.126;2023-04-01T05:38:21;98557.00;;;15.20
9119;BMP180;4594;50.994;7.126;2023-04-01T05:40:47;98572.00;;;15.30
9119;BMP180;4594;50.994;7.126;2023-04-01T05:43:13;98584.00;;;15.30
9119;BMP180;4594;50.994;7.126;2023-04-01T05:45:38;98569.00;;;15.30
9119;BMP180;4594;50.994;7.126;2023-04-01T05:48:04;98571.00;;;15.30
9119;BMP180;4594;50.994;7.126;2023-04-01T05:50:30;98562.00;;;15.30
9119;BMP180;4594;50.994;7.126;2023-04-01T05:52:56;98576.00;;;15.40
9119;BMP180;4594;50.994;7.126;2023-04-01T05:55:22;98577.00;;;15.40
9119;BMP180;4594;50.994;7.126;2023-04-01T05:57:48;98589.00;;;15.40
9119;BMP180;4594;50.994;7.126;2023-04-01T06:00:16;98596.00;;;15.40
9119;BMP180;4594;50.994;7.126;2023-04-01T06:02:42;98588.00;;;15.40
9119;BMP180;4594;50.994;7.126;2023-04-01T06:05:26;98593.00;;;15.40
9119;BMP180;4594;50.994;7.126;2023-04-01T06:08:00;98596.00;;;15.40
9119;BMP180;4594;50.994;7.126;2023-04-01T06:11:11;98591.00;;;15.40
9119;BMP180;4594;50.994;7.126;2023-04-01T06:19:42;98597.00;;;15.30
9119;BMP180;4594;50.994;7.126;2023-04-01T06:28:34;98603.00;;;15.20
9119;BMP180;4594;50.994;7.126;2023-04-01T06:32:14;98594.00;;;15.30
9119;BMP180;4594;50.994;7.126;2023-04-01T06:40:22;98590.00;;;15.30
9119;BMP180;4594;50.994;7.126;2023-04-01T06:52:31;98617.00;;;15.40
9119;BMP180;4594;50.994;7.126;2023-04-01T06:55:38;98620.00;;;15.40
9119;BMP180;4594;50.994;7.126;2023-04-01T06:58:45;98627.00;;;15.40
9119;BMP180;4594;50.994;7.126;2023-04-01T07:01:24;98623.00;;;15.50
9119;BMP180;4594;50.994;7.126;2023-04-01T07:09:19;98603.00;;;15.60
9119;BMP180;4594;50.994;7.126;2023-04-01T07:11:46;98628.00;;;15.60
9119;BMP180;4594;50.994;7.126;2023-04-01T07:14:17;98631.00;;;15.70
9119;BMP180;4594;50.994;7.126;2023-04-01T07:16:51;98617.00;;;15.70
9119;BMP180;4594;50.994;7.126;2023-04-01T07:19:42;98623.00;;;15.70
9119;BMP180;4594;50.994;7.126;2023-04-01T07:22:34;98631.00;;;15.70
9119;BMP180;4594;50.994;7.126;2023-04-01T07:25:26;98629.00;;;15.70
9119;BMP180;4594;50.994;7.126;2023-04-01T07:27:58;98640.00;;;15.80
9119;BMP180;4594;50.994;7.126;2023-04-01T07:30:26;98645.00;;;15.80
9119;BMP180;4594;50.994;7.126;2023-04-01T07:35:54;98648.00;;;15.80
9119;BMP180;4594;50.994;7.126;2023-04-01T07:41:51;98653.00;;;15.70
9119;BMP180;4594;50.994;7.126;2023-04-01T07:44:58;98656.00;;;15.70
9119;BMP180;4594;50.994;7.126;2023-04-01T07:48:38;98659.00;;;15.80
9119;BMP180;4594;50.994;7.126;2023-04-01T07:50:35;98655.00;;;15.80
9119;BMP180;4594;50.994;7.126;2023-04-01T07:56:16;98663.00;;;15.80
9119;BMP180;4594;50.994;7.126;2023-04-01T07:58:49;98665.00;;;15.90
9119;BMP180;4594;50.994;7.126;2023-04-01T08:01:43;98670.00;;;15.90
9119;BMP180;4594;50.994;7.126;2023-04-01T08:07:19;98680.00;;;15.90
9119;BMP180;4594;50.994;7.126;2023-04-01T08:10:15;98681.00;;;15.90
9119;BMP180;4594;50.994;7.126;2023-04-01T08:18:32;98691.00;;;16.00
9119;BMP180;4594;50.994;7.126;2023-04-01T08:21:32;98700.00;;;16.00
9119;BMP180;4594;50.994;7.126;2023-04-01T08:24:02;98705.00;;;16.00
9119;BMP180;4594;50.994;7.126;2023-04-01T08:26:39;98709.00;;;16.10
9119;BMP180;4594;50.994;7.126;2023-04-01T08:29:18;98690.00;;;16.10
9119;BMP180;4594;50.994;7.126;2023-04-01T08:32:00;98702.00;;;16.10
9119;BMP180;4594;50.994;7.126;2023-04-01T08:34:39;98702.00;;;16.10
9119;BMP180;4594;50.994;7.126;2023-04-01T08:37:20;98712.00;;;16.10
9119;BMP180;4594;50.994;7.126;2023-04-01T08:39:52;98712.00;;;16.10
9119;BMP180;4594;50.994;7.126;2023-04-01T08:42:28;98719.00;;;16.10
9119;BMP180;4594;50.994;7.126;2023-04-01T08:54:00;98723.00;;;16.00
9119;BMP180;4594;50.994;7.126;2023-04-01T09:06:33;98730.00;;;16.00
9119;BMP180;4594;50.994;7.126;2023-04-01T09:12:48;98744.00;;;16.00
9119;BMP180;4594;50.994;7.126;2023-04-01T09:24:19;98754.00;;;16.20
9119;BMP180;4594;50.994;7.126;2023-04-01T09:27:14;98758.00;;;16.20
9119;BMP180;4594;50.994;7.126;2023-04-01T09:36:09;98778.00;;;16.20
9119;BMP180;4594;50.994;7.126;2023-04-01T09:38:57;98764.00;;;16.20
9119;BMP180;4594;50.994;7.126;2023-04-01T09:41:32;98775.00;;;16.20
9119;BMP180;4594;50.994;7.126;2023-04-01T09:47:34;98780.00;;;16.20
9119;BMP180;4594;50.994;7.126;2023-04-01T09:52:49;98785.00;;;16.30
9119;BMP180;4594;50.994;7.126;2023-04-01T10:13:25;98809.00;;;16.30
9119;BMP180;4594;50.994;7.126;2023-04-01T10:34:32;98835.00;;;16.40
9119;BMP180;4594;50.994;7.126;2023-04-01T10:40:35;98834.00;;;16.40
9119;BMP180;4594;50.994;7.126;2023-04-01T10:43:46;98833.00;;;16.40
9119;BMP180;4594;50.994;7.126;2023-04-01T10:50:26;98832.00;;;16.50
9119;BMP180;4594;50.994;7.126;2023-04-01T10:53:58;98837.00;;;16.60
9119;BMP180;4594;50.994;7.126;2023-04-01T10:56:43;98843.00;;;16.60
9119;BMP180;4594;50.994;7.126;2023-04-01T10:59:36;98839.00;;;16.70
9119;BMP180;4594;50.994;7.126;2023-04-01T11:06:33;98841.00;;;16.60
9119;BMP180;4594;50.994;7.126;2023-04-01T11:09:16;98847.00;;;16.70
9119;BMP180;4594;50.994;7.126;2023-04-01T11:12:31;98851.00;;;16.60
9119;BMP180;4594;50.994;7.126;2023-04-01T11:15:26;98849.00;;;16.60
9119;BMP180;4594;50.994;7.126;2023-04-01T11:19:02;98852.00;;;16.60
9119;BMP180;4594;50.994;7.126;2023-04-01T11:22:07;98862.00;;;16.60
9119;BMP180;4594;50.994;7.126;2023-04-01T11:25:09;98861.00;;;16.60
9119;BMP180;4594;50.994;7.126;2023-04-01T11:37:33;98857.00;;;16.60
9119;BMP180;4594;50.994;7.126;2023-04-01T11:40:55;98873.00;;;16.60
9119;BMP180;4594;50.994;7.126;2023-04-01T11:44:17;98876.00;;;16.70
9119;BMP180;4594;50.994;7.126;2023-04-01T11:47:27;98874.00;;;16.80
9119;BMP180;4594;50.994;7.126;2023-04-01T11:50:37;98876.00;;;16.80
9119;BMP180;4594;50.994;7.126;2023-04-01T11:55:59;98891.00;;;16.90
9119;BMP180;4594;50.994;7.126;2023-04-01T12:02:34;98903.00;;;17.00
9119;BMP180;4594;50.994;7.126;2023-04-01T12:09:02;98902.00;;;17.00
9119;BMP180;4594;50.994;7.126;2023-04-01T12:11:39;98897.00;;;17.00
9119;BMP180;4594;50.994;7.126;2023-04-01T12:19:56;98895.00;;;17.20
9119;BMP180;4594;50.994;7.126;2023-04-01T12:23:10;98904.00;;;17.20
9119;BMP180;4594;50.994;7.126;2023-04-01T12:37:41;98936.00;;;17.30
9119;BMP180;4594;50.994;7.126;2023-04-01T12:46:16;98941.00;;;17.40
9119;BMP180;4594;50.994;7.126;2023-04-01T12:52:09;98950.00;;;17.40
9119;BMP180;4594;50.994;7.126;2023-04-01T13:03:50;98940.00;;;17.40
9119;BMP180;4594;50.994;7.126;2023-04-01T13:09:18;98959.00;;;17.40
9119;BMP180;4594;50.994;7.126;2023-04-01T13:26:56;98972.00;;;17.20
9119;BMP180;4594;50.994;7.126;2023-04-01T13:36:18;98990.00;;;17.10
9119;BMP180;4594;50.994;7.126;2023-04-01T13:42:12;98988.00;;;17.10
9119;BMP180;4594;50.994;7.126;2023-04-01T13:56:34;98984.00;;;17.30
9119;BMP180;4594;50.994;7.126;2023-04-01T14:00:00;99009.00;;;17.20
9119;BMP180;4594;50.994;7.126;2023-04-01T14:14:24;99026.00;;;17.10
9119;BMP180;4594;50.994;7.126;2023-04-01T14:29:34;99047.00;;;17.00
9119;BMP180;4594;50.994;7.126;2023-04-01T14:44:10;99066.00;;;16.90
9119;BMP180;4594;50.994;7.126;2023-04-01T14:50:18;99047.00;;;16.90
9119;BMP180;4594;50.994;7.126;2023-04-01T14:58:14;99054.00;;;17.10
9119;BMP180;4594;50.994;7.126;2023-04-01T15:09:11;99071.00;;;17.00
9119;BMP180;4594;50.994;7.126;2023-04-01T15:12:10;99073.00;;;17.00
9119;BMP180;4594;50.994;7.126;2023-04-01T15:20:51;99088.00;;;16.90
9119;BMP180;4594;50.994;7.126;2023-04-01T15:23:46;99084.00;;;16.90
9119;BMP180;4594;50.994;7.126;2023-04-01T15:26:37;99094.00;;;16.90
9119;BMP180;4594;50.994;7.126;2023-04-01T15:32:02;99101.00;;;16.90
9119;BMP180;4594;50.994;7.126;2023-04-01T15:37:56;99099.00;;;16.90
9119;BMP180;4594;50.994;7.126;2023-04-01T15:40:53;99105.00;;;16.90
9119;BMP180;4594;50.994;7.126;2023-04-01T15:43:43;99102.00;;;16.90
9119;BMP180;4594;50.994;7.126;2023-04-01T15:49:43;99115.00;;;16.80
9119;BMP180;4594;50.994;7.126;2023-04-01T15:55:11;99125.00;;;16.80
9119;BMP180;4594;50.994;7.126;2023-04-01T16:01:14;99124.00;;;16.80
9119;BMP180;4594;50.994;7.126;2023-04-01T16:09:53;99143.00;;;16.60
9119;BMP180;4594;50.994;7.126;2023-04-01T16:27:14;99154.00;;;16.40
9119;BMP180;4594;50.994;7.126;2023-04-01T16:30:17;99168.00;;;16.40
9119;BMP180;4594;50.994;7.126;2023-04-01T16:32:57;99159.00;;;16.40
9119;BMP180;4594;50.994;7.126;2023-04-01T16:35:53;99162.00;;;16.40
9119;BMP180;4594;50.994;7.126;2023-04-01T16:43:54;99167.00;;;16.30
9119;BMP180;4594;50.994;7.126;2023-04-01T16:46:32;99178.00;;;16.30
9119;BMP180;4594;50.994;7.126;2023-04-01T16:49:30;99182.00;;;16.40
9119;BMP180;4594;50.994;7.126;2023-04-01T16:52:04;99186.00;;;16.30
9119;BMP180;4594;50.994;7.126;2023-04-01T16:55:14;99191.00;;;16.30
9119;BMP180;4594;50.994;7.126;2023-04-01T17:00:16;99202.00;;;16.40
9119;BMP180;4594;50.994;7.126;2023-04-01T17:03:12;99201.00;;;16.40
9119;BMP180;4594;50.994;7.126;2023-04-01T17:06:14;99203.00;;;16.30
9119;BMP180;4594;50.994;7.126;2023-04-01T17:23:20;99227.00;;;16.20
9119;BMP180;4594;50.994;7.126;2023-04-01T17:26:17;99232.00;;;16.20
9119;BMP180;4594;50.994;7.126;2023-04-01T17:32:25;99232.00;;;16.20
9119;BMP180;4594;50.994;7.126;2023-04-01T17:44:19;99260.00;;;16.10
9119;BMP180;4594;50.994;7.126;2023-04-01T17:56:18;99256.00;;;15.90
9119;BMP180;4594;50.994;7.126;2023-04-01T17:59:16;99272.00;;;15.90
9119;BMP180;4594;50.994;7.126;2023-04-01T18:02:03;99285.00;;;15.90
9119;BMP180;4594;50.994;7.126;2023-04-01T18:16:34;99294.00;;;15.80
9119;BMP180;4594;50.994;7.126;2023-04-01T18:22:18;99306.00;;;15.80
9119;BMP180;4594;50.994;7.126;2023-04-01T18:25:28;99317.00;;;15.70
9119;BMP180;4594;50.994;7.126;2023-04-01T18:37:01;99323.00;;;15.70
9119;BMP180;4594;50.994;7.126;2023-04-01T18:39:49;99326.00;;;15.70
9119;BMP180;4594;50.994;7.126;2023-04-01T18:42:46;99343.00;;;15.70
9119;BMP180;4594;50.994;7.126;2023-04-01T18:45:36;99344.00;;;15.70
9119;BMP180;4594;50.994;7.126;2023-04-01T18:49:00;99346.00;;;15.60
9119;BMP180;4594;50.994;7.126;2023-04-01T18:51:58;99359.00;;;15.60
9119;BMP180;4594;50.994;7.126;2023-04-01T18:55:14;99353.00;;;15.60
9119;BMP180;4594;50.994;7.126;2023-04-01T18:57:52;99361.00;;;15.60
9119;BMP180;4594;50.994;7.126;2023-04-01T19:03:20;99359.00;;;15.60
9119;BMP180;4594;50.994;7.126;2023-04-01T19:05:52;99360.00;;;15.60
9119;BMP180;4594;50.994;7.126;2023-04-01T19:08:34;99373.00;;;15.60
9119;BMP180;4594;50.994;7.126;2023-04-01T19:11:22;99375.00;;;15.60
9119;BMP180;4594;50.994;7.126;2023-04-01T19:17:00;99381.00;;;15.60
9119;BMP180;4594;50.994;7.126;2023-04-01T19:23:31;99390.00;;;15.60
9119;BMP180;4594;50.994;7.126;2023-04-01T19:26:15;99393.00;;;15.60
9119;BMP180;4594;50.994;7.126;2023-04-01T19:29:10;99395.00;;;15.60
9119;BMP180;4594;50.994;7.126;2023-04-01T19:34:25;99406.00;;;15.60
9119;BMP180;4594;50.994;7.126;2023-04-01T19:37:20;99394.00;;;15.50
9119;BMP180;4594;50.994;7.126;2023-04-01T19:45:54;99410.00;;;15.50
9119;BMP180;4594;50.994;7.126;2023-04-01T19:48:43;99409.00;;;15.50
9119;BMP180;4594;50.994;7.126;2023-04-01T19:51:25;99415.00;;;15.50
9119;BMP180;4594;50.994;7.126;2023-04-01T19:54:38;99419.00;;;15.50
9119;BMP180;4594;50.994;7.126;2023-04-01T19:57:27;99416.00;;;15.50
9119;BMP180;4594;50.994;7.126;2023-04-01T20:14:36;99440.00;;;15.50
9119;BMP180;4594;50.994;7.126;2023-04-01T20:17:11;99448.00;;;15.50
9119;BMP180;4594;50.994;7.126;2023-04-01T20:20:00;99455.00;;;15.40
9119;BMP180;4594;50.994;7.126;2023-04-01T20:23:05;99453.00;;;15.40
9119;BMP180;4594;50.994;7.126;2023-04-01T20:25:52;99447.00;;;15.40
9119;BMP180;4594;50.994;7.126;2023-04-01T20:31:24;99464.00;;;15.40
9119;BMP180;4594;50.994;7.126;2023-04-01T20:40:39;99475.00;;;15.30
9119;BMP180;4594;50.994;7.126;2023-04-01T20:43:46;99474.00;;;15.30
9119;BMP180;4594;50.994;7.126;2023-04-01T20:57:38;99496.00;;;15.30
9119;BMP180;4594;50.994;7.126;2023-04-01T21:00:23;99496.00;;;15.30
9119;BMP180;4594;50.994;7.126;2023-04-01T21:03:19;99494.00;;;15.30
9119;BMP180;4594;50.994;7.126;2023-04-01T21:15:25;99511.00;;;15.20
9119;BMP180;4594;50.994;7.126;2023-04-01T21:18:28;99506.00;;;15.20
9119;BMP180;4594;50.994;7.126;2023-04-01T21:26:56;99513.00;;;15.30
9119;BMP180;4594;50.994;7.126;2023-04-01T21:35:56;99514.00;;;15.20
9119;BMP180;4594;50.994;7.126;2023-04-01T21:45:02;99527.00;;;15.20
9119;BMP180;4594;50.994;7.126;2023-04-01T21:48:12;99529.00;;;15.20
9119;BMP180;4594;50.994;7.126;2023-04-01T22:00:20;99549.00;;;15.20
9119;BMP180;4594;50.994;7.126;2023-04-01T22:09:12;99551.00;;;15.10
9119;BMP180;4594;50.994;7.126;2023-04-01T22:12:29;99567.00;;;15.10
9119;BMP180;4594;50.994;7.126;2023-04-01T22:17:37;99567.00;;;15.10
9119;BMP180;4594;50.994;7.126;2023-04-01T22:23:17;99577.00;;;15.00
9119;BMP180;4594;50.994;7.126;2023-04-01T22:28:27;99583.00;;;15.00
9119;BMP180;4594;50.994;7.126;2023-04-01T22:31:01;99584.00;;;15.10
9119;BMP180;4594;50.994;7.126;2023-04-01T22:33:46;99596.00;;;15.10
9119;BMP180;4594;50.994;7.126;2023-04-01T22:45:05;99590.00;;;15.10
9119;BMP180;4594;50.994;7.126;2023-04-01T22:48:05;99599.00;;;15.10
9119;BMP180;4594;50.994;7.126;2023-04-01T22:54:27;99610.00;;;15.10
9119;BMP180;4594;50.994;7.126;2023-04-01T22:57:04;99613.00;;;15.10
9119;BMP180;4594;50.994;7.126;2023-04-01T22:59:59;99606.00;;;15.00
9119;BMP180;4594;50.994;7.126;2023-04-01T23:02:31;99615.00;;;15.00
9119;BMP180;4594;50.994;7.126;2023-04-01T23:05:03;99622.00;;;15.00
9119;BMP180;4594;50.994;7.126;2023-04-01T23:08:29;99622.00;;;15.00
9119;BMP180;4594;50.994;7.126;2023-04-01T23:11:12;99618.00;;;14.90
9119;BMP180;4594;50.994;7.126;2023-04-01T23:13:50;99629.00;;;14.90
9119;BMP180;4594;50.994;7.126;2023-04-01T23:16:31;99638.00;;;14.90
9119;BMP180;4594;50.994;7.126;2023-04-01T23:22:28;99647.00;;;14.90
9119;BMP180;4594;50.994;7.126;2023-04-01T23:35:54;99674.00;;;14.90
9119;BMP180;4594;50.994;7.126;2023-04-01T23:38:25;99671.00;;;14.90
9119;BMP180;4594;50.994;7.126;2023-04-01T23:40:54;99675.00;;;14.90
9119;BMP180;4594;50.994;7.126;2023-04-01T23:43:57;99679.00;;;14.90
9119;BMP180;4594;50.994;7.126;2023-04-01T23:46:25;99682.00;;;14.90
9119;BMP180;4594;50.994;7.126;2023-04-01T23:48:52;99690.00;;;14.90
9119;BMP180;4594;50.994;7.126;2023-04-01T23:51:35;99699.00;;;14.90
9119;BMP180;4594;50.994;7.126;2023-04-01T23:56:54;99706.00;;;15.00
9119;BMP180;4594;50.994;7.126;2023-04-01T23:59:35;99704.00;;;15.00
